sensor_id;sensor_type;location;lat;lon;timestamp;P1;durP1;ratioP1;P2;durP2;ratioP2
2706;SDS011;7819;48.046;7.642;2023-05-10T00:02:12;2.40;;;2.30;;
2706;SDS011;7819;48.046;7.642;2023-05-10T00:04:37;3.83;;;2.33;;
2706;SDS011;7819;48.046;7.642;2023-05-10T00:07:02;2.80;;;2.60;;
2706;SDS011;7819;48.046;7.642;2023-05-10T00:09:28;5.40;;;4.90;;
2706;SDS011;7819;48.046;7.642;2023-05-10T00:11:53;9.87;;;6.83;;
2706;SDS011;7819;48.046;7.642;2023-05-10T00:14:18;3.70;;;3.50;;
2706;SDS011;7819;48.046;7.642;2023-05-10T00:16:43;2.70;;;2.50;;
2706;SDS011;7819;48.046;7.642;2023-05-10T00:19:09;2.90;;;2.70;;
2706;SDS011;7819;48.046;7.642;2023-05-10T00:21:34;3.00;;;2.80;;
2706;SDS011;7819;48.046;7.642;2023-05-10T00:23:59;3.00;;;2.80;;
2706;SDS011;7819;48.046;7.642;2023-05-10T00:26:25;3.57;;;3.37;;
2706;SDS011;7819;48.046;7.642;2023-05-10T00:28:50;3.50;;;3.30;;
2706;SDS011;7819;48.046;7.642;2023-05-10T00:31:15;3.70;;;3.40;;
2706;SDS011;7819;48.046;7.642;2023-05-10T00:33:40;3.23;;;3.13;;
2706;SDS011;7819;48.046;7.642;2023-05-10T00:36:05;3.03;;;2.83;;
2706;SDS011;7819;48.046;7.642;2023-05-10T00:38:32;3.17;;;2.90;;
2706;SDS011;7819;48.046;7.642;2023-05-10T00:40:57;3.47;;;3.27;;
2706;SDS011;7819;48.046;7.642;2023-05-10T00:43:23;3.67;;;3.47;;
2706;SDS011;7819;48.046;7.642;2023-05-10T00:45:48;3.40;;;3.20;;
2706;SDS011;7819;48.046;7.642;2023-05-10T00:48:13;3.80;;;3.50;;
2706;SDS011;7819;48.046;7.642;2023-05-10T00:50:38;4.50;;;3.17;;
2706;SDS011;7819;48.046;7.642;2023-05-10T00:53:05;4.00;;;3.70;;
2706;SDS011;7819;48.046;7.642;2023-05-10T00:55:31;3.90;;;3.60;;
2706;SDS011;7819;48.046;7.642;2023-05-10T00:57:56;3.70;;;3.50;;
2706;SDS011;7819;48.046;7.642;2023-05-10T01:00:21;3.10;;;3.00;;
2706;SDS011;7819;48.046;7.642;2023-05-10T01:02:47;3.80;;;3.60;;
2706;SDS011;7819;48.046;7.642;2023-05-10T01:05:12;3.17;;;3.07;;
2706;SDS011;7819;48.046;7.642;2023-05-10T01:07:38;3.60;;;3.30;;
2706;SDS011;7819;48.046;7.642;2023-05-10T01:10:03;3.27;;;3.17;;
2706;SDS011;7819;48.046;7.642;2023-05-10T01:12:29;3.27;;;3.17;;
2706;SDS011;7819;48.046;7.642;2023-05-10T01:14:54;3.07;;;2.90;;
2706;SDS011;7819;48.046;7.642;2023-05-10T01:17:20;3.40;;;3.20;;
2706;SDS011;7819;48.046;7.642;2023-05-10T01:19:45;2.60;;;2.50;;
2706;SDS011;7819;48.046;7.642;2023-05-10T01:22:16;2.90;;;2.80;;
2706;SDS011;7819;48.046;7.642;2023-05-10T01:37:20;2.88;;;2.78;;
2706;SDS011;7819;48.046;7.642;2023-05-10T01:42:19;2.77;;;2.67;;
2706;SDS011;7819;48.046;7.642;2023-05-10T01:44:49;2.70;;;2.60;;
2706;SDS011;7819;48.046;7.642;2023-05-10T01:47:23;2.90;;;2.80;;
2706;SDS011;7819;48.046;7.642;2023-05-10T01:49:50;2.60;;;2.40;;
2706;SDS011;7819;48.046;7.642;2023-05-10T01:52:18;2.43;;;2.33;;
2706;SDS011;7819;48.046;7.642;2023-05-10T01:55:04;2.23;;;2.13;;
2706;SDS011;7819;48.046;7.642;2023-05-10T01:57:34;2.60;;;2.50;;
2706;SDS011;7819;48.046;7.642;2023-05-10T02:00:01;2.47;;;2.37;;
2706;SDS011;7819;48.046;7.642;2023-05-10T02:02:27;2.43;;;2.33;;
2706;SDS011;7819;48.046;7.642;2023-05-10T02:04:54;2.63;;;2.53;;
2706;SDS011;7819;48.046;7.642;2023-05-10T02:07:20;2.27;;;2.07;;
2706;SDS011;7819;48.046;7.642;2023-05-10T02:09:46;2.37;;;2.23;;
2706;SDS011;7819;48.046;7.642;2023-05-10T02:12:13;2.50;;;2.40;;
2706;SDS011;7819;48.046;7.642;2023-05-10T02:14:38;2.90;;;2.70;;
2706;SDS011;7819;48.046;7.642;2023-05-10T02:17:05;2.57;;;2.47;;
2706;SDS011;7819;48.046;7.642;2023-05-10T02:19:31;2.80;;;2.60;;
2706;SDS011;7819;48.046;7.642;2023-05-10T02:21:57;2.73;;;2.63;;
2706;SDS011;7819;48.046;7.642;2023-05-10T02:24:23;3.27;;;3.07;;
2706;SDS011;7819;48.046;7.642;2023-05-10T02:26:50;2.47;;;2.37;;
2706;SDS011;7819;48.046;7.642;2023-05-10T02:29:16;2.70;;;2.50;;
2706;SDS011;7819;48.046;7.642;2023-05-10T02:31:41;3.30;;;3.10;;
2706;SDS011;7819;48.046;7.642;2023-05-10T02:34:08;2.90;;;2.80;;
2706;SDS011;7819;48.046;7.642;2023-05-10T02:36:34;3.33;;;3.03;;
2706;SDS011;7819;48.046;7.642;2023-05-10T02:39:00;2.93;;;2.57;;
2706;SDS011;7819;48.046;7.642;2023-05-10T02:41:26;2.77;;;2.57;;
2706;SDS011;7819;48.046;7.642;2023-05-10T02:43:52;2.67;;;2.40;;
2706;SDS011;7819;48.046;7.642;2023-05-10T02:46:20;2.67;;;2.40;;
2706;SDS011;7819;48.046;7.642;2023-05-10T02:48:46;2.70;;;2.60;;
2706;SDS011;7819;48.046;7.642;2023-05-10T02:51:11;2.60;;;2.47;;
2706;SDS011;7819;48.046;7.642;2023-05-10T02:53:40;3.20;;;3.00;;
2706;SDS011;7819;48.046;7.642;2023-05-10T02:56:09;2.63;;;2.43;;
2706;SDS011;7819;48.046;7.642;2023-05-10T02:58:36;3.03;;;2.83;;
2706;SDS011;7819;48.046;7.642;2023-05-10T03:01:01;6.90;;;6.50;;
2706;SDS011;7819;48.046;7.642;2023-05-10T03:03:27;3.63;;;3.43;;
2706;SDS011;7819;48.046;7.642;2023-05-10T03:05:52;3.30;;;3.10;;
2706;SDS011;7819;48.046;7.642;2023-05-10T03:08:20;3.03;;;2.73;;
2706;SDS011;7819;48.046;7.642;2023-05-10T03:10:54;3.03;;;2.93;;
2706;SDS011;7819;48.046;7.642;2023-05-10T03:13:31;3.33;;;3.03;;
2706;SDS011;7819;48.046;7.642;2023-05-10T03:18:56;3.63;;;3.43;;
2706;SDS011;7819;48.046;7.642;2023-05-10T03:21:24;4.30;;;3.60;;
2706;SDS011;7819;48.046;7.642;2023-05-10T03:23:51;4.13;;;3.83;;
2706;SDS011;7819;48.046;7.642;2023-05-10T03:26:18;3.33;;;3.23;;
2706;SDS011;7819;48.046;7.642;2023-05-10T03:28:45;3.70;;;3.40;;
2706;SDS011;7819;48.046;7.642;2023-05-10T03:31:10;6.20;;;4.27;;
2706;SDS011;7819;48.046;7.642;2023-05-10T03:33:45;4.00;;;3.80;;
2706;SDS011;7819;48.046;7.642;2023-05-10T03:36:10;4.83;;;4.33;;
2706;SDS011;7819;48.046;7.642;2023-05-10T03:38:35;4.10;;;3.83;;
2706;SDS011;7819;48.046;7.642;2023-05-10T03:41:01;3.90;;;3.70;;
2706;SDS011;7819;48.046;7.642;2023-05-10T03:43:26;3.57;;;3.27;;
2706;SDS011;7819;48.046;7.642;2023-05-10T03:45:51;4.23;;;4.03;;
2706;SDS011;7819;48.046;7.642;2023-05-10T03:48:16;4.40;;;4.20;;
2706;SDS011;7819;48.046;7.642;2023-05-10T03:50:41;3.67;;;3.57;;
2706;SDS011;7819;48.046;7.642;2023-05-10T03:53:07;4.40;;;4.20;;
2706;SDS011;7819;48.046;7.642;2023-05-10T03:55:32;4.40;;;4.20;;
2706;SDS011;7819;48.046;7.642;2023-05-10T03:58:00;5.03;;;4.83;;
2706;SDS011;7819;48.046;7.642;2023-05-10T04:00:26;8.47;;;7.70;;
2706;SDS011;7819;48.046;7.642;2023-05-10T04:02:51;5.47;;;5.20;;
2706;SDS011;7819;48.046;7.642;2023-05-10T04:05:16;6.30;;;5.90;;
2706;SDS011;7819;48.046;7.642;2023-05-10T04:07:41;5.47;;;5.17;;
2706;SDS011;7819;48.046;7.642;2023-05-10T04:10:07;5.10;;;4.80;;
2706;SDS011;7819;48.046;7.642;2023-05-10T04:12:32;4.80;;;4.50;;
2706;SDS011;7819;48.046;7.642;2023-05-10T04:14:57;5.30;;;4.77;;
2706;SDS011;7819;48.046;7.642;2023-05-10T04:17:22;4.87;;;4.67;;
2706;SDS011;7819;48.046;7.642;2023-05-10T04:19:48;4.87;;;4.67;;
2706;SDS011;7819;48.046;7.642;2023-05-10T04:22:13;5.43;;;5.03;;
2706;SDS011;7819;48.046;7.642;2023-05-10T04:24:38;5.80;;;5.50;;
2706;SDS011;7819;48.046;7.642;2023-05-10T04:27:03;7.50;;;6.93;;
2706;SDS011;7819;48.046;7.642;2023-05-10T04:29:29;5.63;;;5.33;;
2706;SDS011;7819;48.046;7.642;2023-05-10T04:31:54;6.60;;;6.30;;
2706;SDS011;7819;48.046;7.642;2023-05-10T04:34:20;6.17;;;5.87;;
2706;SDS011;7819;48.046;7.642;2023-05-10T04:36:45;6.30;;;6.00;;
2706;SDS011;7819;48.046;7.642;2023-05-10T04:39:10;5.90;;;5.60;;
2706;SDS011;7819;48.046;7.642;2023-05-10T04:41:37;5.70;;;5.40;;
2706;SDS011;7819;48.046;7.642;2023-05-10T04:44:02;6.63;;;6.27;;
2706;SDS011;7819;48.046;7.642;2023-05-10T04:46:27;6.73;;;6.43;;
2706;SDS011;7819;48.046;7.642;2023-05-10T04:48:52;5.80;;;5.50;;
2706;SDS011;7819;48.046;7.642;2023-05-10T04:51:18;5.40;;;5.20;;
2706;SDS011;7819;48.046;7.642;2023-05-10T04:53:43;6.20;;;5.70;;
2706;SDS011;7819;48.046;7.642;2023-05-10T04:56:08;6.80;;;6.30;;
2706;SDS011;7819;48.046;7.642;2023-05-10T04:58:33;5.90;;;5.60;;
2706;SDS011;7819;48.046;7.642;2023-05-10T05:01:04;5.33;;;5.03;;
2706;SDS011;7819;48.046;7.642;2023-05-10T05:03:30;4.60;;;4.30;;
2706;SDS011;7819;48.046;7.642;2023-05-10T05:05:55;6.40;;;6.10;;
2706;SDS011;7819;48.046;7.642;2023-05-10T05:08:20;6.30;;;5.80;;
2706;SDS011;7819;48.046;7.642;2023-05-10T05:10:45;6.23;;;5.93;;
2706;SDS011;7819;48.046;7.642;2023-05-10T05:13:12;5.80;;;5.30;;
2706;SDS011;7819;48.046;7.642;2023-05-10T05:15:37;6.60;;;6.30;;
2706;SDS011;7819;48.046;7.642;2023-05-10T05:18:02;6.30;;;6.00;;
2706;SDS011;7819;48.046;7.642;2023-05-10T05:20:28;5.37;;;5.17;;
2706;SDS011;7819;48.046;7.642;2023-05-10T05:22:53;6.57;;;6.20;;
2706;SDS011;7819;48.046;7.642;2023-05-10T05:25:18;5.57;;;5.30;;
2706;SDS011;7819;48.046;7.642;2023-05-10T05:27:43;6.20;;;5.90;;
2706;SDS011;7819;48.046;7.642;2023-05-10T05:30:08;6.07;;;5.77;;
2706;SDS011;7819;48.046;7.642;2023-05-10T05:32:34;7.30;;;6.70;;
2706;SDS011;7819;48.046;7.642;2023-05-10T05:34:59;5.90;;;5.47;;
2706;SDS011;7819;48.046;7.642;2023-05-10T05:37:24;6.70;;;6.30;;
2706;SDS011;7819;48.046;7.642;2023-05-10T05:39:50;6.00;;;5.60;;
2706;SDS011;7819;48.046;7.642;2023-05-10T05:42:15;6.77;;;6.27;;
2706;SDS011;7819;48.046;7.642;2023-05-10T05:44:42;7.20;;;6.57;;
2706;SDS011;7819;48.046;7.642;2023-05-10T05:47:07;6.87;;;6.57;;
2706;SDS011;7819;48.046;7.642;2023-05-10T05:49:33;8.13;;;7.53;;
2706;SDS011;7819;48.046;7.642;2023-05-10T05:51:58;6.77;;;6.37;;
2706;SDS011;7819;48.046;7.642;2023-05-10T05:54:23;6.47;;;5.93;;
2706;SDS011;7819;48.046;7.642;2023-05-10T05:56:49;6.63;;;6.23;;
2706;SDS011;7819;48.046;7.642;2023-05-10T05:59:14;7.10;;;6.60;;
2706;SDS011;7819;48.046;7.642;2023-05-10T06:01:39;6.03;;;5.73;;
2706;SDS011;7819;48.046;7.642;2023-05-10T06:04:04;5.60;;;5.30;;
2706;SDS011;7819;48.046;7.642;2023-05-10T06:06:29;5.90;;;5.50;;
2706;SDS011;7819;48.046;7.642;2023-05-10T06:08:55;4.87;;;4.57;;
2706;SDS011;7819;48.046;7.642;2023-05-10T06:11:20;5.90;;;5.60;;
2706;SDS011;7819;48.046;7.642;2023-05-10T06:13:48;5.10;;;4.90;;
2706;SDS011;7819;48.046;7.642;2023-05-10T06:16:13;6.73;;;6.33;;
2706;SDS011;7819;48.046;7.642;2023-05-10T06:18:39;5.50;;;5.20;;
2706;SDS011;7819;48.046;7.642;2023-05-10T06:21:04;6.67;;;6.37;;
2706;SDS011;7819;48.046;7.642;2023-05-10T06:23:29;5.53;;;5.23;;
2706;SDS011;7819;48.046;7.642;2023-05-10T06:25:54;4.90;;;4.60;;
2706;SDS011;7819;48.046;7.642;2023-05-10T06:28:19;4.73;;;4.53;;
2706;SDS011;7819;48.046;7.642;2023-05-10T06:30:45;3.90;;;3.60;;
2706;SDS011;7819;48.046;7.642;2023-05-10T06:33:10;4.80;;;4.40;;
2706;SDS011;7819;48.046;7.642;2023-05-10T06:35:35;4.00;;;3.70;;
2706;SDS011;7819;48.046;7.642;2023-05-10T06:38:01;3.87;;;3.57;;
2706;SDS011;7819;48.046;7.642;2023-05-10T06:40:26;3.73;;;3.53;;
2706;SDS011;7819;48.046;7.642;2023-05-10T06:42:52;5.23;;;4.90;;
2706;SDS011;7819;48.046;7.642;2023-05-10T06:45:17;4.50;;;4.10;;
2706;SDS011;7819;48.046;7.642;2023-05-10T06:47:42;5.03;;;3.37;;
2706;SDS011;7819;48.046;7.642;2023-05-10T06:50:08;4.30;;;3.23;;
2706;SDS011;7819;48.046;7.642;2023-05-10T06:52:33;4.70;;;4.30;;
2706;SDS011;7819;48.046;7.642;2023-05-10T06:54:59;3.80;;;3.43;;
2706;SDS011;7819;48.046;7.642;2023-05-10T06:57:25;3.47;;;3.20;;
2706;SDS011;7819;48.046;7.642;2023-05-10T06:59:50;4.13;;;2.70;;
2706;SDS011;7819;48.046;7.642;2023-05-10T07:02:16;4.73;;;2.63;;
2706;SDS011;7819;48.046;7.642;2023-05-10T07:04:41;2.07;;;1.93;;
2706;SDS011;7819;48.046;7.642;2023-05-10T07:07:06;4.23;;;2.27;;
2706;SDS011;7819;48.046;7.642;2023-05-10T07:09:32;3.70;;;2.10;;
2706;SDS011;7819;48.046;7.642;2023-05-10T07:11:57;2.67;;;2.00;;
2706;SDS011;7819;48.046;7.642;2023-05-10T07:14:22;3.67;;;1.40;;
2706;SDS011;7819;48.046;7.642;2023-05-10T07:16:47;1.83;;;1.60;;
2706;SDS011;7819;48.046;7.642;2023-05-10T07:19:13;2.50;;;1.47;;
2706;SDS011;7819;48.046;7.642;2023-05-10T07:21:38;2.70;;;1.30;;
2706;SDS011;7819;48.046;7.642;2023-05-10T07:24:05;2.63;;;1.23;;
2706;SDS011;7819;48.046;7.642;2023-05-10T07:26:30;2.10;;;1.43;;
2706;SDS011;7819;48.046;7.642;2023-05-10T07:28:56;1.20;;;0.90;;
2706;SDS011;7819;48.046;7.642;2023-05-10T07:31:21;1.80;;;1.20;;
2706;SDS011;7819;48.046;7.642;2023-05-10T07:33:46;1.00;;;0.80;;
2706;SDS011;7819;48.046;7.642;2023-05-10T07:36:12;1.10;;;1.00;;
2706;SDS011;7819;48.046;7.642;2023-05-10T07:38:37;1.30;;;0.90;;
2706;SDS011;7819;48.046;7.642;2023-05-10T07:41:02;2.67;;;1.23;;
2706;SDS011;7819;48.046;7.642;2023-05-10T07:43:27;3.00;;;0.90;;
2706;SDS011;7819;48.046;7.642;2023-05-10T07:45:52;3.63;;;1.40;;
2706;SDS011;7819;48.046;7.642;2023-05-10T07:48:18;1.50;;;1.00;;
2706;SDS011;7819;48.046;7.642;2023-05-10T07:50:43;1.63;;;1.03;;
2706;SDS011;7819;48.046;7.642;2023-05-10T07:53:09;1.00;;;0.70;;
2706;SDS011;7819;48.046;7.642;2023-05-10T07:55:34;1.93;;;0.73;;
2706;SDS011;7819;48.046;7.642;2023-05-10T07:57:59;1.50;;;1.20;;
2706;SDS011;7819;48.046;7.642;2023-05-10T08:00:26;4.03;;;1.10;;
2706;SDS011;7819;48.046;7.642;2023-05-10T08:02:51;1.30;;;1.00;;
2706;SDS011;7819;48.046;7.642;2023-05-10T08:05:16;2.40;;;1.10;;
2706;SDS011;7819;48.046;7.642;2023-05-10T08:07:41;3.33;;;1.17;;
2706;SDS011;7819;48.046;7.642;2023-05-10T08:10:07;1.93;;;0.90;;
2706;SDS011;7819;48.046;7.642;2023-05-10T08:12:32;1.03;;;0.80;;
2706;SDS011;7819;48.046;7.642;2023-05-10T08:14:58;1.33;;;0.77;;
2706;SDS011;7819;48.046;7.642;2023-05-10T08:17:23;1.83;;;0.90;;
2706;SDS011;7819;48.046;7.642;2023-05-10T08:19:48;2.00;;;0.90;;
2706;SDS011;7819;48.046;7.642;2023-05-10T08:22:13;1.23;;;0.93;;
2706;SDS011;7819;48.046;7.642;2023-05-10T08:24:38;4.40;;;1.20;;
2706;SDS011;7819;48.046;7.642;2023-05-10T08:27:07;1.60;;;1.10;;
2706;SDS011;7819;48.046;7.642;2023-05-10T08:29:32;1.10;;;0.90;;
2706;SDS011;7819;48.046;7.642;2023-05-10T08:31:57;2.53;;;1.00;;
2706;SDS011;7819;48.046;7.642;2023-05-10T08:34:23;2.90;;;0.93;;
2706;SDS011;7819;48.046;7.642;2023-05-10T08:36:48;3.03;;;0.73;;
2706;SDS011;7819;48.046;7.642;2023-05-10T08:39:13;2.57;;;0.83;;
2706;SDS011;7819;48.046;7.642;2023-05-10T08:41:39;1.30;;;0.70;;
2706;SDS011;7819;48.046;7.642;2023-05-10T08:44:04;2.60;;;1.13;;
2706;SDS011;7819;48.046;7.642;2023-05-10T08:46:30;1.00;;;0.80;;
2706;SDS011;7819;48.046;7.642;2023-05-10T08:48:55;2.07;;;0.87;;
2706;SDS011;7819;48.046;7.642;2023-05-10T08:51:22;5.37;;;1.10;;
2706;SDS011;7819;48.046;7.642;2023-05-10T08:53:50;1.50;;;0.90;;
2706;SDS011;7819;48.046;7.642;2023-05-10T08:56:15;1.40;;;1.13;;
2706;SDS011;7819;48.046;7.642;2023-05-10T08:58:40;2.90;;;1.10;;
2706;SDS011;7819;48.046;7.642;2023-05-10T09:01:06;3.80;;;1.10;;
2706;SDS011;7819;48.046;7.642;2023-05-10T09:03:32;3.60;;;1.73;;
2706;SDS011;7819;48.046;7.642;2023-05-10T09:05:57;2.23;;;0.93;;
2706;SDS011;7819;48.046;7.642;2023-05-10T09:08:23;2.47;;;1.27;;
2706;SDS011;7819;48.046;7.642;2023-05-10T09:10:50;2.80;;;1.00;;
2706;SDS011;7819;48.046;7.642;2023-05-10T09:13:16;2.93;;;1.40;;
2706;SDS011;7819;48.046;7.642;2023-05-10T09:15:42;2.40;;;0.80;;
2706;SDS011;7819;48.046;7.642;2023-05-10T09:18:08;2.10;;;0.70;;
2706;SDS011;7819;48.046;7.642;2023-05-10T09:20:33;2.00;;;0.80;;
2706;SDS011;7819;48.046;7.642;2023-05-10T09:22:58;1.33;;;0.93;;
2706;SDS011;7819;48.046;7.642;2023-05-10T09:25:23;2.17;;;0.70;;
2706;SDS011;7819;48.046;7.642;2023-05-10T09:27:49;1.93;;;0.80;;
2706;SDS011;7819;48.046;7.642;2023-05-10T09:30:22;1.37;;;0.50;;
2706;SDS011;7819;48.046;7.642;2023-05-10T09:32:48;4.47;;;1.20;;
2706;SDS011;7819;48.046;7.642;2023-05-10T09:35:15;3.70;;;1.00;;
2706;SDS011;7819;48.046;7.642;2023-05-10T09:37:47;2.30;;;0.73;;
2706;SDS011;7819;48.046;7.642;2023-05-10T09:40:16;1.30;;;0.50;;
2706;SDS011;7819;48.046;7.642;2023-05-10T09:42:51;2.10;;;0.50;;
2706;SDS011;7819;48.046;7.642;2023-05-10T09:45:16;1.10;;;0.50;;
2706;SDS011;7819;48.046;7.642;2023-05-10T09:47:43;1.03;;;0.60;;
2706;SDS011;7819;48.046;7.642;2023-05-10T09:50:08;1.90;;;0.70;;
2706;SDS011;7819;48.046;7.642;2023-05-10T09:55:22;1.50;;;0.80;;
2706;SDS011;7819;48.046;7.642;2023-05-10T09:57:48;2.70;;;1.17;;
2706;SDS011;7819;48.046;7.642;2023-05-10T10:00:19;1.27;;;0.73;;
2706;SDS011;7819;48.046;7.642;2023-05-10T10:02:53;2.03;;;0.80;;
2706;SDS011;7819;48.046;7.642;2023-05-10T10:05:19;2.70;;;1.00;;
2706;SDS011;7819;48.046;7.642;2023-05-10T10:07:44;2.77;;;0.90;;
2706;SDS011;7819;48.046;7.642;2023-05-10T10:10:09;1.10;;;0.50;;
2706;SDS011;7819;48.046;7.642;2023-05-10T10:12:37;1.80;;;0.83;;
2706;SDS011;7819;48.046;7.642;2023-05-10T10:15:02;2.63;;;0.70;;
2706;SDS011;7819;48.046;7.642;2023-05-10T10:17:29;1.13;;;0.50;;
2706;SDS011;7819;48.046;7.642;2023-05-10T10:19:55;1.70;;;0.97;;
2706;SDS011;7819;48.046;7.642;2023-05-10T10:22:21;2.93;;;0.70;;
2706;SDS011;7819;48.046;7.642;2023-05-10T10:24:47;2.20;;;0.70;;
2706;SDS011;7819;48.046;7.642;2023-05-10T10:27:37;2.43;;;0.70;;
2706;SDS011;7819;48.046;7.642;2023-05-10T10:34:51;1.57;;;0.60;;
2706;SDS011;7819;48.046;7.642;2023-05-10T10:37:18;1.60;;;0.60;;
2706;SDS011;7819;48.046;7.642;2023-05-10T10:39:43;0.93;;;0.53;;
2706;SDS011;7819;48.046;7.642;2023-05-10T10:42:08;1.50;;;0.60;;
2706;SDS011;7819;48.046;7.642;2023-05-10T10:44:35;0.97;;;0.47;;
2706;SDS011;7819;48.046;7.642;2023-05-10T10:49:38;1.57;;;0.67;;
2706;SDS011;7819;48.046;7.642;2023-05-10T10:54:38;1.50;;;0.50;;
2706;SDS011;7819;48.046;7.642;2023-05-10T10:57:10;1.10;;;0.70;;
2706;SDS011;7819;48.046;7.642;2023-05-10T10:59:35;1.30;;;0.60;;
2706;SDS011;7819;48.046;7.642;2023-05-10T11:02:01;1.40;;;0.73;;
2706;SDS011;7819;48.046;7.642;2023-05-10T11:04:27;6.43;;;0.73;;
2706;SDS011;7819;48.046;7.642;2023-05-10T11:06:52;1.27;;;0.70;;
2706;SDS011;7819;48.046;7.642;2023-05-10T11:09:41;1.20;;;0.50;;
2706;SDS011;7819;48.046;7.642;2023-05-10T11:12:08;2.80;;;0.50;;
2706;SDS011;7819;48.046;7.642;2023-05-10T11:14:33;1.30;;;0.60;;
2706;SDS011;7819;48.046;7.642;2023-05-10T11:16:59;3.53;;;0.90;;
2706;SDS011;7819;48.046;7.642;2023-05-10T11:19:27;1.73;;;0.47;;
2706;SDS011;7819;48.046;7.642;2023-05-10T11:24:30;2.23;;;0.83;;
2706;SDS011;7819;48.046;7.642;2023-05-10T11:26:55;1.50;;;0.60;;
2706;SDS011;7819;48.046;7.642;2023-05-10T11:29:21;1.77;;;0.80;;
2706;SDS011;7819;48.046;7.642;2023-05-10T11:31:46;1.13;;;0.53;;
2706;SDS011;7819;48.046;7.642;2023-05-10T11:34:22;2.57;;;0.80;;
2706;SDS011;7819;48.046;7.642;2023-05-10T11:36:50;2.20;;;0.60;;
2706;SDS011;7819;48.046;7.642;2023-05-10T11:39:16;1.20;;;0.60;;
2706;SDS011;7819;48.046;7.642;2023-05-10T11:41:41;1.93;;;1.00;;
2706;SDS011;7819;48.046;7.642;2023-05-10T11:44:06;1.83;;;0.80;;
2706;SDS011;7819;48.046;7.642;2023-05-10T11:46:33;1.50;;;1.00;;
2706;SDS011;7819;48.046;7.642;2023-05-10T11:48:59;1.77;;;0.73;;
2706;SDS011;7819;48.046;7.642;2023-05-10T11:51:34;1.47;;;0.87;;
2706;SDS011;7819;48.046;7.642;2023-05-10T11:54:01;2.30;;;0.80;;
2706;SDS011;7819;48.046;7.642;2023-05-10T11:56:27;2.33;;;1.33;;
2706;SDS011;7819;48.046;7.642;2023-05-10T11:58:56;1.53;;;0.80;;
2706;SDS011;7819;48.046;7.642;2023-05-10T12:01:22;1.30;;;0.73;;
2706;SDS011;7819;48.046;7.642;2023-05-10T12:03:48;3.00;;;1.20;;
2706;SDS011;7819;48.046;7.642;2023-05-10T12:06:14;1.17;;;0.60;;
2706;SDS011;7819;48.046;7.642;2023-05-10T12:08:43;1.77;;;0.93;;
2706;SDS011;7819;48.046;7.642;2023-05-10T12:11:09;1.63;;;0.57;;
2706;SDS011;7819;48.046;7.642;2023-05-10T12:13:38;1.67;;;1.07;;
2706;SDS011;7819;48.046;7.642;2023-05-10T12:18:40;1.93;;;0.60;;
2706;SDS011;7819;48.046;7.642;2023-05-10T12:21:07;3.00;;;1.00;;
2706;SDS011;7819;48.046;7.642;2023-05-10T12:23:34;1.30;;;0.60;;
2706;SDS011;7819;48.046;7.642;2023-05-10T12:26:02;1.40;;;0.77;;
2706;SDS011;7819;48.046;7.642;2023-05-10T12:28:31;4.10;;;0.70;;
2706;SDS011;7819;48.046;7.642;2023-05-10T12:30:57;1.67;;;0.63;;
2706;SDS011;7819;48.046;7.642;2023-05-10T12:33:22;1.10;;;0.50;;
2706;SDS011;7819;48.046;7.642;2023-05-10T12:35:48;2.00;;;0.70;;
2706;SDS011;7819;48.046;7.642;2023-05-10T12:38:26;1.20;;;0.50;;
2706;SDS011;7819;48.046;7.642;2023-05-10T12:40:54;1.63;;;0.60;;
2706;SDS011;7819;48.046;7.642;2023-05-10T12:43:19;2.50;;;0.70;;
2706;SDS011;7819;48.046;7.642;2023-05-10T12:45:44;2.07;;;0.63;;
2706;SDS011;7819;48.046;7.642;2023-05-10T12:48:12;1.20;;;0.50;;
2706;SDS011;7819;48.046;7.642;2023-05-10T12:50:38;0.80;;;0.47;;
2706;SDS011;7819;48.046;7.642;2023-05-10T12:53:03;1.50;;;0.40;;
2706;SDS011;7819;48.046;7.642;2023-05-10T12:55:28;1.10;;;0.40;;
2706;SDS011;7819;48.046;7.642;2023-05-10T12:57:53;2.23;;;0.57;;
2706;SDS011;7819;48.046;7.642;2023-05-10T13:00:18;1.07;;;0.50;;
2706;SDS011;7819;48.046;7.642;2023-05-10T13:02:43;0.80;;;0.40;;
2706;SDS011;7819;48.046;7.642;2023-05-10T13:05:09;1.20;;;0.57;;
2706;SDS011;7819;48.046;7.642;2023-05-10T13:07:34;1.10;;;0.57;;
2706;SDS011;7819;48.046;7.642;2023-05-10T13:09:59;1.10;;;0.50;;
2706;SDS011;7819;48.046;7.642;2023-05-10T13:12:24;0.80;;;0.60;;
2706;SDS011;7819;48.046;7.642;2023-05-10T13:14:50;0.97;;;0.50;;
2706;SDS011;7819;48.046;7.642;2023-05-10T13:17:15;0.83;;;0.43;;
2706;SDS011;7819;48.046;7.642;2023-05-10T13:19:40;1.23;;;0.53;;
2706;SDS011;7819;48.046;7.642;2023-05-10T13:22:05;0.70;;;0.40;;
2706;SDS011;7819;48.046;7.642;2023-05-10T13:24:30;1.03;;;0.40;;
2706;SDS011;7819;48.046;7.642;2023-05-10T13:26:55;0.80;;;0.50;;
2706;SDS011;7819;48.046;7.642;2023-05-10T13:29:21;1.00;;;0.53;;
2706;SDS011;7819;48.046;7.642;2023-05-10T13:31:47;1.10;;;0.50;;
2706;SDS011;7819;48.046;7.642;2023-05-10T13:34:12;1.57;;;0.63;;
2706;SDS011;7819;48.046;7.642;2023-05-10T13:36:37;1.00;;;0.40;;
2706;SDS011;7819;48.046;7.642;2023-05-10T13:39:03;1.27;;;0.57;;
2706;SDS011;7819;48.046;7.642;2023-05-10T13:41:30;0.90;;;0.50;;
2706;SDS011;7819;48.046;7.642;2023-05-10T13:43:55;1.13;;;0.60;;
2706;SDS011;7819;48.046;7.642;2023-05-10T13:46:20;0.70;;;0.40;;
2706;SDS011;7819;48.046;7.642;2023-05-10T13:48:45;1.40;;;0.60;;
2706;SDS011;7819;48.046;7.642;2023-05-10T13:51:10;2.00;;;0.70;;
2706;SDS011;7819;48.046;7.642;2023-05-10T13:53:36;1.43;;;0.80;;
2706;SDS011;7819;48.046;7.642;2023-05-10T13:56:01;1.23;;;0.50;;
2706;SDS011;7819;48.046;7.642;2023-05-10T13:58:27;1.10;;;0.67;;
2706;SDS011;7819;48.046;7.642;2023-05-10T14:00:52;1.00;;;0.50;;
2706;SDS011;7819;48.046;7.642;2023-05-10T14:03:18;0.90;;;0.43;;
2706;SDS011;7819;48.046;7.642;2023-05-10T14:05:43;1.40;;;0.50;;
2706;SDS011;7819;48.046;7.642;2023-05-10T14:08:09;2.17;;;0.50;;
2706;SDS011;7819;48.046;7.642;2023-05-10T14:10:35;3.90;;;1.23;;
2706;SDS011;7819;48.046;7.642;2023-05-10T14:13:01;1.17;;;0.50;;
2706;SDS011;7819;48.046;7.642;2023-05-10T14:15:28;0.90;;;0.50;;
2706;SDS011;7819;48.046;7.642;2023-05-10T14:17:53;1.83;;;0.70;;
2706;SDS011;7819;48.046;7.642;2023-05-10T14:20:18;1.93;;;0.60;;
2706;SDS011;7819;48.046;7.642;2023-05-10T14:22:43;1.03;;;0.50;;
2706;SDS011;7819;48.046;7.642;2023-05-10T14:25:08;1.13;;;0.50;;
2706;SDS011;7819;48.046;7.642;2023-05-10T14:27:34;1.13;;;0.70;;
2706;SDS011;7819;48.046;7.642;2023-05-10T14:29:59;1.70;;;0.50;;
2706;SDS011;7819;48.046;7.642;2023-05-10T14:32:24;0.90;;;0.50;;
2706;SDS011;7819;48.046;7.642;2023-05-10T14:34:49;1.20;;;0.60;;
2706;SDS011;7819;48.046;7.642;2023-05-10T14:37:15;0.90;;;0.50;;
2706;SDS011;7819;48.046;7.642;2023-05-10T14:39:41;2.17;;;0.53;;
2706;SDS011;7819;48.046;7.642;2023-05-10T14:42:07;1.90;;;0.60;;
2706;SDS011;7819;48.046;7.642;2023-05-10T14:44:32;1.00;;;0.50;;
2706;SDS011;7819;48.046;7.642;2023-05-10T14:46:57;1.17;;;0.57;;
2706;SDS011;7819;48.046;7.642;2023-05-10T14:49:22;2.07;;;0.50;;
2706;SDS011;7819;48.046;7.642;2023-05-10T14:51:50;2.07;;;0.60;;
2706;SDS011;7819;48.046;7.642;2023-05-10T14:54:15;1.03;;;0.50;;
2706;SDS011;7819;48.046;7.642;2023-05-10T14:56:41;2.97;;;0.50;;
2706;SDS011;7819;48.046;7.642;2023-05-10T14:59:06;3.47;;;0.63;;
2706;SDS011;7819;48.046;7.642;2023-05-10T15:01:32;0.80;;;0.40;;
2706;SDS011;7819;48.046;7.642;2023-05-10T15:03:57;3.20;;;0.70;;
2706;SDS011;7819;48.046;7.642;2023-05-10T15:06:23;1.10;;;0.50;;
2706;SDS011;7819;48.046;7.642;2023-05-10T15:08:50;1.00;;;0.60;;
2706;SDS011;7819;48.046;7.642;2023-05-10T15:11:15;1.10;;;0.70;;
2706;SDS011;7819;48.046;7.642;2023-05-10T15:13:40;0.80;;;0.50;;
2706;SDS011;7819;48.046;7.642;2023-05-10T15:16:05;0.90;;;0.50;;
2706;SDS011;7819;48.046;7.642;2023-05-10T15:18:31;2.17;;;0.60;;
2706;SDS011;7819;48.046;7.642;2023-05-10T15:20:56;3.60;;;0.70;;
2706;SDS011;7819;48.046;7.642;2023-05-10T15:23:21;1.90;;;0.73;;
2706;SDS011;7819;48.046;7.642;2023-05-10T15:25:46;3.47;;;1.27;;
2706;SDS011;7819;48.046;7.642;2023-05-10T15:28:12;1.87;;;0.40;;
2706;SDS011;7819;48.046;7.642;2023-05-10T15:30:37;1.10;;;0.50;;
2706;SDS011;7819;48.046;7.642;2023-05-10T15:33:02;1.60;;;0.70;;
2706;SDS011;7819;48.046;7.642;2023-05-10T15:35:28;1.23;;;0.60;;
2706;SDS011;7819;48.046;7.642;2023-05-10T15:37:53;1.40;;;0.50;;
2706;SDS011;7819;48.046;7.642;2023-05-10T15:40:18;2.30;;;0.80;;
2706;SDS011;7819;48.046;7.642;2023-05-10T15:42:44;1.20;;;0.70;;
2706;SDS011;7819;48.046;7.642;2023-05-10T15:45:09;1.97;;;0.77;;